sensor_id;sensor_type;location;lat;lon;timestamp;P1;durP1;ratioP1;P2;durP2;ratioP2
17790;SDS011;9019;48.132;-1.210;2022-07-17T00:01:04;4.60;;;3.30;;
17790;SDS011;9019;48.132;-1.210;2022-07-17T00:03:31;4.67;;;3.83;;
17790;SDS011;9019;48.132;-1.210;2022-07-17T00:05:58;5.17;;;3.93;;
17790;SDS011;9019;48.132;-1.210;2022-07-17T00:08:25;7.83;;;3.80;;
17790;SDS011;9019;48.132;-1.210;2022-07-17T00:10:52;8.27;;;3.40;;
17790;SDS011;9019;48.132;-1.210;2022-07-17T00:13:19;4.37;;;3.30;;
17790;SDS011;9019;48.132;-1.210;2022-07-17T00:15:46;3.93;;;3.20;;
17790;SDS011;9019;48.132;-1.210;2022-07-17T00:18:14;4.40;;;3.73;;
17790;SDS011;9019;48.132;-1.210;2022-07-17T00:20:41;6.80;;;3.63;;
17790;SDS011;9019;48.132;-1.210;2022-07-17T00:23:08;4.47;;;3.57;;
17790;SDS011;9019;48.132;-1.210;2022-07-17T00:25:36;6.43;;;3.40;;
17790;SDS011;9019;48.132;-1.210;2022-07-17T00:28:04;9.53;;;3.60;;
17790;SDS011;9019;48.132;-1.210;2022-07-17T00:30:31;5.00;;;3.63;;
17790;SDS011;9019;48.132;-1.210;2022-07-17T00:32:58;7.20;;;3.37;;
17790;SDS011;9019;48.132;-1.210;2022-07-17T00:35:26;9.47;;;3.53;;
17790;SDS011;9019;48.132;-1.210;2022-07-17T00:37:53;9.77;;;3.83;;
17790;SDS011;9019;48.132;-1.210;2022-07-17T00:40:21;7.13;;;3.70;;
17790;SDS011;9019;48.132;-1.210;2022-07-17T00:42:50;5.07;;;3.57;;
17790;SDS011;9019;48.132;-1.210;2022-07-17T00:45:18;5.67;;;3.40;;
17790;SDS011;9019;48.132;-1.210;2022-07-17T00:47:50;4.67;;;3.37;;
17790;SDS011;9019;48.132;-1.210;2022-07-17T00:50:20;3.30;;;3.00;;
17790;SDS011;9019;48.132;-1.210;2022-07-17T00:52:49;6.93;;;3.77;;
17790;SDS011;9019;48.132;-1.210;2022-07-17T00:55:17;6.20;;;3.73;;
17790;SDS011;9019;48.132;-1.210;2022-07-17T00:57:45;5.37;;;3.00;;
17790;SDS011;9019;48.132;-1.210;2022-07-17T01:00:13;6.53;;;3.17;;
17790;SDS011;9019;48.132;-1.210;2022-07-17T01:02:44;4.80;;;3.33;;
17790;SDS011;9019;48.132;-1.210;2022-07-17T01:05:12;3.60;;;3.30;;
17790;SDS011;9019;48.132;-1.210;2022-07-17T01:07:39;6.03;;;3.47;;
17790;SDS011;9019;48.132;-1.210;2022-07-17T01:10:08;4.90;;;3.20;;
17790;SDS011;9019;48.132;-1.210;2022-07-17T01:12:35;6.57;;;3.10;;
17790;SDS011;9019;48.132;-1.210;2022-07-17T01:15:02;4.83;;;3.27;;
17790;SDS011;9019;48.132;-1.210;2022-07-17T01:17:30;5.57;;;3.47;;
17790;SDS011;9019;48.132;-1.210;2022-07-17T01:19:57;6.20;;;3.57;;
17790;SDS011;9019;48.132;-1.210;2022-07-17T01:22:26;4.00;;;3.40;;
17790;SDS011;9019;48.132;-1.210;2022-07-17T01:24:53;5.67;;;3.70;;
17790;SDS011;9019;48.132;-1.210;2022-07-17T01:27:19;4.90;;;3.20;;
17790;SDS011;9019;48.132;-1.210;2022-07-17T01:29:46;7.47;;;3.50;;
17790;SDS011;9019;48.132;-1.210;2022-07-17T01:32:13;6.70;;;3.67;;
17790;SDS011;9019;48.132;-1.210;2022-07-17T01:34:40;7.40;;;3.50;;
17790;SDS011;9019;48.132;-1.210;2022-07-17T01:37:08;4.03;;;3.20;;
17790;SDS011;9019;48.132;-1.210;2022-07-17T01:39:36;4.70;;;3.53;;
17790;SDS011;9019;48.132;-1.210;2022-07-17T01:42:21;5.17;;;3.50;;
17790;SDS011;9019;48.132;-1.210;2022-07-17T01:44:49;4.60;;;3.47;;
17790;SDS011;9019;48.132;-1.210;2022-07-17T01:47:16;4.70;;;3.43;;
17790;SDS011;9019;48.132;-1.210;2022-07-17T01:49:44;5.00;;;3.30;;
17790;SDS011;9019;48.132;-1.210;2022-07-17T01:52:11;6.87;;;3.20;;
17790;SDS011;9019;48.132;-1.210;2022-07-17T01:54:40;6.70;;;3.37;;
17790;SDS011;9019;48.132;-1.210;2022-07-17T01:57:08;7.00;;;3.50;;
17790;SDS011;9019;48.132;-1.210;2022-07-17T01:59:35;4.13;;;3.30;;
17790;SDS011;9019;48.132;-1.210;2022-07-17T02:02:04;3.63;;;3.10;;
17790;SDS011;9019;48.132;-1.210;2022-07-17T02:04:31;5.63;;;3.10;;
17790;SDS011;9019;48.132;-1.210;2022-07-17T02:06:58;7.50;;;3.43;;
17790;SDS011;9019;48.132;-1.210;2022-07-17T02:09:25;4.50;;;3.13;;
17790;SDS011;9019;48.132;-1.210;2022-07-17T02:11:53;4.77;;;3.40;;
17790;SDS011;9019;48.132;-1.210;2022-07-17T02:14:20;5.60;;;3.03;;
17790;SDS011;9019;48.132;-1.210;2022-07-17T02:16:48;4.40;;;3.30;;
17790;SDS011;9019;48.132;-1.210;2022-07-17T02:19:15;6.23;;;3.07;;
17790;SDS011;9019;48.132;-1.210;2022-07-17T02:21:42;8.23;;;3.30;;
17790;SDS011;9019;48.132;-1.210;2022-07-17T02:24:09;5.80;;;3.90;;
17790;SDS011;9019;48.132;-1.210;2022-07-17T02:26:36;3.90;;;3.10;;
17790;SDS011;9019;48.132;-1.210;2022-07-17T02:29:04;4.30;;;3.00;;
17790;SDS011;9019;48.132;-1.210;2022-07-17T02:31:32;6.23;;;2.80;;
17790;SDS011;9019;48.132;-1.210;2022-07-17T02:33:59;4.40;;;3.13;;
17790;SDS011;9019;48.132;-1.210;2022-07-17T02:36:26;4.20;;;2.73;;
17790;SDS011;9019;48.132;-1.210;2022-07-17T02:38:52;4.07;;;3.00;;
17790;SDS011;9019;48.132;-1.210;2022-07-17T02:41:19;4.87;;;2.90;;
17790;SDS011;9019;48.132;-1.210;2022-07-17T02:43:46;5.67;;;2.77;;
17790;SDS011;9019;48.132;-1.210;2022-07-17T02:46:15;4.60;;;3.00;;
17790;SDS011;9019;48.132;-1.210;2022-07-17T02:48:42;4.17;;;2.90;;
17790;SDS011;9019;48.132;-1.210;2022-07-17T02:51:09;3.80;;;2.93;;
17790;SDS011;9019;48.132;-1.210;2022-07-17T02:53:36;6.03;;;2.97;;
17790;SDS011;9019;48.132;-1.210;2022-07-17T02:56:03;3.10;;;2.80;;
17790;SDS011;9019;48.132;-1.210;2022-07-17T02:58:31;7.63;;;3.30;;
17790;SDS011;9019;48.132;-1.210;2022-07-17T03:00:58;7.30;;;3.17;;
17790;SDS011;9019;48.132;-1.210;2022-07-17T03:03:26;4.60;;;3.07;;
17790;SDS011;9019;48.132;-1.210;2022-07-17T03:05:54;4.37;;;2.60;;
17790;SDS011;9019;48.132;-1.210;2022-07-17T03:08:21;6.13;;;3.23;;
17790;SDS011;9019;48.132;-1.210;2022-07-17T03:10:48;4.10;;;3.00;;
17790;SDS011;9019;48.132;-1.210;2022-07-17T03:13:14;5.37;;;3.00;;
17790;SDS011;9019;48.132;-1.210;2022-07-17T03:15:41;3.47;;;3.00;;
17790;SDS011;9019;48.132;-1.210;2022-07-17T03:18:08;4.67;;;2.80;;
17790;SDS011;9019;48.132;-1.210;2022-07-17T03:20:37;3.97;;;3.00;;
17790;SDS011;9019;48.132;-1.210;2022-07-17T03:23:04;4.90;;;3.03;;
17790;SDS011;9019;48.132;-1.210;2022-07-17T03:25:31;6.40;;;3.00;;
17790;SDS011;9019;48.132;-1.210;2022-07-17T03:27:58;4.40;;;2.97;;
17790;SDS011;9019;48.132;-1.210;2022-07-17T03:30:25;6.10;;;2.70;;
17790;SDS011;9019;48.132;-1.210;2022-07-17T03:32:52;3.40;;;3.07;;
17790;SDS011;9019;48.132;-1.210;2022-07-17T03:35:19;3.23;;;2.67;;
17790;SDS011;9019;48.132;-1.210;2022-07-17T03:37:47;6.77;;;2.90;;
17790;SDS011;9019;48.132;-1.210;2022-07-17T03:40:15;3.17;;;2.47;;
17790;SDS011;9019;48.132;-1.210;2022-07-17T03:42:42;5.97;;;3.77;;
17790;SDS011;9019;48.132;-1.210;2022-07-17T03:45:09;4.97;;;2.90;;
17790;SDS011;9019;48.132;-1.210;2022-07-17T03:47:36;3.23;;;2.57;;
17790;SDS011;9019;48.132;-1.210;2022-07-17T03:50:03;4.20;;;3.00;;
17790;SDS011;9019;48.132;-1.210;2022-07-17T03:52:31;5.17;;;3.10;;
17790;SDS011;9019;48.132;-1.210;2022-07-17T03:54:59;3.17;;;2.70;;
17790;SDS011;9019;48.132;-1.210;2022-07-17T03:57:26;3.40;;;2.70;;
17790;SDS011;9019;48.132;-1.210;2022-07-17T03:59:53;5.40;;;2.90;;
17790;SDS011;9019;48.132;-1.210;2022-07-17T04:02:20;5.73;;;2.70;;
17790;SDS011;9019;48.132;-1.210;2022-07-17T04:04:47;4.07;;;2.57;;
17790;SDS011;9019;48.132;-1.210;2022-07-17T04:07:14;4.13;;;2.70;;
17790;SDS011;9019;48.132;-1.210;2022-07-17T04:09:54;3.67;;;2.63;;
17790;SDS011;9019;48.132;-1.210;2022-07-17T04:12:23;3.37;;;2.77;;
17790;SDS011;9019;48.132;-1.210;2022-07-17T04:14:51;5.23;;;3.00;;
17790;SDS011;9019;48.132;-1.210;2022-07-17T04:17:17;3.90;;;2.90;;
17790;SDS011;9019;48.132;-1.210;2022-07-17T04:19:45;4.43;;;2.60;;
17790;SDS011;9019;48.132;-1.210;2022-07-17T04:22:12;3.63;;;2.63;;
17790;SDS011;9019;48.132;-1.210;2022-07-17T04:24:38;5.27;;;2.90;;
17790;SDS011;9019;48.132;-1.210;2022-07-17T04:27:06;5.13;;;2.70;;
17790;SDS011;9019;48.132;-1.210;2022-07-17T04:29:34;5.73;;;2.80;;
17790;SDS011;9019;48.132;-1.210;2022-07-17T04:32:01;4.07;;;2.60;;
17790;SDS011;9019;48.132;-1.210;2022-07-17T04:34:28;3.40;;;2.50;;
17790;SDS011;9019;48.132;-1.210;2022-07-17T04:36:57;4.20;;;2.80;;
17790;SDS011;9019;48.132;-1.210;2022-07-17T04:39:24;5.67;;;2.77;;
17790;SDS011;9019;48.132;-1.210;2022-07-17T04:41:51;3.90;;;2.40;;
17790;SDS011;9019;48.132;-1.210;2022-07-17T04:44:18;3.83;;;2.50;;
17790;SDS011;9019;48.132;-1.210;2022-07-17T04:46:47;8.27;;;2.97;;
17790;SDS011;9019;48.132;-1.210;2022-07-17T04:49:14;5.73;;;2.80;;
17790;SDS011;9019;48.132;-1.210;2022-07-17T04:51:41;4.23;;;2.50;;
17790;SDS011;9019;48.132;-1.210;2022-07-17T04:54:08;3.60;;;2.57;;
17790;SDS011;9019;48.132;-1.210;2022-07-17T04:56:35;5.33;;;2.83;;
17790;SDS011;9019;48.132;-1.210;2022-07-17T04:59:02;3.60;;;2.80;;
17790;SDS011;9019;48.132;-1.210;2022-07-17T05:01:29;4.47;;;2.47;;
17790;SDS011;9019;48.132;-1.210;2022-07-17T05:03:58;2.77;;;2.50;;
17790;SDS011;9019;48.132;-1.210;2022-07-17T05:06:25;4.07;;;2.80;;
17790;SDS011;9019;48.132;-1.210;2022-07-17T05:08:51;4.53;;;2.67;;
17790;SDS011;9019;48.132;-1.210;2022-07-17T05:11:18;3.47;;;2.93;;
17790;SDS011;9019;48.132;-1.210;2022-07-17T05:13:45;3.67;;;2.60;;
17790;SDS011;9019;48.132;-1.210;2022-07-17T05:16:12;3.97;;;2.57;;
17790;SDS011;9019;48.132;-1.210;2022-07-17T05:18:39;4.60;;;2.70;;
17790;SDS011;9019;48.132;-1.210;2022-07-17T05:21:08;4.93;;;2.53;;
17790;SDS011;9019;48.132;-1.210;2022-07-17T05:23:35;4.40;;;2.60;;
17790;SDS011;9019;48.132;-1.210;2022-07-17T05:26:02;4.90;;;2.37;;
17790;SDS011;9019;48.132;-1.210;2022-07-17T05:28:29;4.40;;;2.50;;
17790;SDS011;9019;48.132;-1.210;2022-07-17T05:30:56;6.13;;;2.50;;
17790;SDS011;9019;48.132;-1.210;2022-07-17T05:33:22;5.93;;;2.90;;
17790;SDS011;9019;48.132;-1.210;2022-07-17T05:35:49;5.80;;;2.70;;
17790;SDS011;9019;48.132;-1.210;2022-07-17T05:38:18;3.30;;;2.57;;
17790;SDS011;9019;48.132;-1.210;2022-07-17T05:40:45;3.13;;;2.57;;
17790;SDS011;9019;48.132;-1.210;2022-07-17T05:43:11;2.50;;;2.30;;
17790;SDS011;9019;48.132;-1.210;2022-07-17T05:45:38;4.33;;;2.60;;
17790;SDS011;9019;48.132;-1.210;2022-07-17T05:48:05;4.63;;;2.47;;
17790;SDS011;9019;48.132;-1.210;2022-07-17T05:50:33;6.28;;;2.83;;
17790;SDS011;9019;48.132;-1.210;2022-07-17T05:53:00;3.28;;;2.80;;
17790;SDS011;9019;48.132;-1.210;2022-07-17T05:55:28;3.75;;;2.60;;
17790;SDS011;9019;48.132;-1.210;2022-07-17T05:57:55;3.08;;;2.25;;
17790;SDS011;9019;48.132;-1.210;2022-07-17T06:00:22;2.72;;;2.30;;
17790;SDS011;9019;48.132;-1.210;2022-07-17T06:02:49;5.95;;;2.65;;
17790;SDS011;9019;48.132;-1.210;2022-07-17T06:05:16;3.08;;;2.40;;
17790;SDS011;9019;48.132;-1.210;2022-07-17T06:07:43;2.90;;;2.35;;
17790;SDS011;9019;48.132;-1.210;2022-07-17T06:10:10;5.13;;;2.38;;
17790;SDS011;9019;48.132;-1.210;2022-07-17T06:12:39;4.45;;;2.63;;
17790;SDS011;9019;48.132;-1.210;2022-07-17T06:15:06;3.15;;;2.42;;
17790;SDS011;9019;48.132;-1.210;2022-07-17T06:17:33;2.50;;;2.13;;
17790;SDS011;9019;48.132;-1.210;2022-07-17T06:20:00;3.15;;;2.50;;
17790;SDS011;9019;48.132;-1.210;2022-07-17T06:22:27;4.03;;;2.60;;
17790;SDS011;9019;48.132;-1.210;2022-07-17T06:24:54;3.03;;;2.33;;
17790;SDS011;9019;48.132;-1.210;2022-07-17T06:27:21;2.88;;;2.30;;
17790;SDS011;9019;48.132;-1.210;2022-07-17T06:29:50;4.22;;;2.50;;
17790;SDS011;9019;48.132;-1.210;2022-07-17T06:32:17;2.97;;;2.33;;
17790;SDS011;9019;48.132;-1.210;2022-07-17T06:34:44;3.78;;;2.25;;
17790;SDS011;9019;48.132;-1.210;2022-07-17T06:37:10;2.80;;;2.50;;
17790;SDS011;9019;48.132;-1.210;2022-07-17T06:39:37;2.75;;;2.10;;
17790;SDS011;9019;48.132;-1.210;2022-07-17T06:42:04;2.63;;;2.00;;
17790;SDS011;9019;48.132;-1.210;2022-07-17T06:44:31;4.03;;;2.00;;
17790;SDS011;9019;48.132;-1.210;2022-07-17T06:47:00;6.18;;;2.63;;
17790;SDS011;9019;48.132;-1.210;2022-07-17T06:49:27;3.15;;;1.92;;
17790;SDS011;9019;48.132;-1.210;2022-07-17T06:51:54;3.40;;;2.20;;
17790;SDS011;9019;48.132;-1.210;2022-07-17T06:54:21;4.70;;;2.20;;
17790;SDS011;9019;48.132;-1.210;2022-07-17T06:56:51;3.78;;;2.10;;
17790;SDS011;9019;48.132;-1.210;2022-07-17T06:59:18;2.65;;;2.00;;
17790;SDS011;9019;48.132;-1.210;2022-07-17T07:01:45;2.40;;;2.15;;
17790;SDS011;9019;48.132;-1.210;2022-07-17T07:04:14;2.53;;;2.17;;
17790;SDS011;9019;48.132;-1.210;2022-07-17T07:06:41;3.50;;;2.20;;
17790;SDS011;9019;48.132;-1.210;2022-07-17T07:09:08;2.78;;;2.15;;
17790;SDS011;9019;48.132;-1.210;2022-07-17T07:11:36;6.38;;;2.28;;
17790;SDS011;9019;48.132;-1.210;2022-07-17T07:14:03;4.60;;;1.92;;
17790;SDS011;9019;48.132;-1.210;2022-07-17T07:16:30;3.55;;;1.92;;
17790;SDS011;9019;48.132;-1.210;2022-07-17T07:18:57;3.13;;;2.22;;
17790;SDS011;9019;48.132;-1.210;2022-07-17T07:21:26;3.17;;;2.20;;
17790;SDS011;9019;48.132;-1.210;2022-07-17T07:23:53;5.40;;;2.00;;
17790;SDS011;9019;48.132;-1.210;2022-07-17T07:26:20;2.15;;;1.95;;
17790;SDS011;9019;48.132;-1.210;2022-07-17T07:28:48;3.45;;;1.98;;
17790;SDS011;9019;48.132;-1.210;2022-07-17T07:31:15;3.05;;;2.08;;
17790;SDS011;9019;48.132;-1.210;2022-07-17T07:33:43;5.60;;;1.90;;
17790;SDS011;9019;48.132;-1.210;2022-07-17T07:36:10;4.07;;;2.08;;
17790;SDS011;9019;48.132;-1.210;2022-07-17T07:38:39;2.20;;;2.00;;
17790;SDS011;9019;48.132;-1.210;2022-07-17T07:41:06;2.42;;;1.95;;
17790;SDS011;9019;48.132;-1.210;2022-07-17T07:43:33;2.78;;;1.95;;
17790;SDS011;9019;48.132;-1.210;2022-07-17T07:46:00;2.15;;;1.90;;
17790;SDS011;9019;48.132;-1.210;2022-07-17T07:48:28;3.47;;;1.83;;
17790;SDS011;9019;48.132;-1.210;2022-07-17T07:50:55;3.42;;;1.80;;
17790;SDS011;9019;48.132;-1.210;2022-07-17T07:53:22;2.47;;;2.28;;
17790;SDS011;9019;48.132;-1.210;2022-07-17T07:55:50;3.78;;;2.15;;
17790;SDS011;9019;48.132;-1.210;2022-07-17T07:58:17;2.33;;;2.13;;
17790;SDS011;9019;48.132;-1.210;2022-07-17T08:00:44;2.92;;;2.15;;
17790;SDS011;9019;48.132;-1.210;2022-07-17T08:03:12;2.72;;;2.20;;
17790;SDS011;9019;48.132;-1.210;2022-07-17T08:05:39;3.88;;;2.10;;
17790;SDS011;9019;48.132;-1.210;2022-07-17T08:08:06;2.65;;;2.10;;
17790;SDS011;9019;48.132;-1.210;2022-07-17T08:10:33;3.15;;;1.92;;
17790;SDS011;9019;48.132;-1.210;2022-07-17T08:13:01;2.28;;;1.92;;
17790;SDS011;9019;48.132;-1.210;2022-07-17T08:15:29;3.47;;;2.38;;
17790;SDS011;9019;48.132;-1.210;2022-07-17T08:17:56;3.83;;;1.92;;
17790;SDS011;9019;48.132;-1.210;2022-07-17T08:20:24;3.70;;;2.38;;
17790;SDS011;9019;48.132;-1.210;2022-07-17T08:22:51;7.82;;;2.40;;
17790;SDS011;9019;48.132;-1.210;2022-07-17T08:25:18;6.18;;;2.17;;
17790;SDS011;9019;48.132;-1.210;2022-07-17T08:27:45;4.10;;;2.30;;
17790;SDS011;9019;48.132;-1.210;2022-07-17T08:30:14;7.05;;;2.83;;
17790;SDS011;9019;48.132;-1.210;2022-07-17T08:32:41;3.75;;;2.35;;
17790;SDS011;9019;48.132;-1.210;2022-07-17T08:35:09;2.88;;;2.10;;
17790;SDS011;9019;48.132;-1.210;2022-07-17T08:37:43;5.32;;;2.33;;
17790;SDS011;9019;48.132;-1.210;2022-07-17T08:40:18;3.58;;;2.38;;
17790;SDS011;9019;48.132;-1.210;2022-07-17T08:42:46;4.38;;;2.40;;
17790;SDS011;9019;48.132;-1.210;2022-07-17T08:45:15;6.55;;;2.10;;
17790;SDS011;9019;48.132;-1.210;2022-07-17T08:47:42;2.13;;;1.92;;
17790;SDS011;9019;48.132;-1.210;2022-07-17T08:50:09;2.10;;;1.85;;
17790;SDS011;9019;48.132;-1.210;2022-07-17T08:52:37;5.55;;;2.35;;
17790;SDS011;9019;48.132;-1.210;2022-07-17T08:55:07;3.15;;;2.40;;
17790;SDS011;9019;48.132;-1.210;2022-07-17T08:57:36;2.75;;;2.17;;
17790;SDS011;9019;48.132;-1.210;2022-07-17T09:00:05;3.15;;;2.13;;
17790;SDS011;9019;48.132;-1.210;2022-07-17T09:02:36;4.28;;;2.10;;
17790;SDS011;9019;48.132;-1.210;2022-07-17T09:05:04;3.17;;;2.00;;
17790;SDS011;9019;48.132;-1.210;2022-07-17T09:07:32;4.03;;;2.50;;
17790;SDS011;9019;48.132;-1.210;2022-07-17T09:09:59;4.43;;;2.28;;
17790;SDS011;9019;48.132;-1.210;2022-07-17T09:12:26;3.30;;;1.92;;
17790;SDS011;9019;48.132;-1.210;2022-07-17T09:14:54;3.38;;;2.10;;
17790;SDS011;9019;48.132;-1.210;2022-07-17T09:17:22;2.80;;;1.83;;
17790;SDS011;9019;48.132;-1.210;2022-07-17T09:19:53;2.80;;;1.83;;
17790;SDS011;9019;48.132;-1.210;2022-07-17T09:22:21;2.63;;;2.08;;
17790;SDS011;9019;48.132;-1.210;2022-07-17T09:24:50;2.38;;;1.70;;
17790;SDS011;9019;48.132;-1.210;2022-07-17T09:27:28;3.72;;;1.98;;
17790;SDS011;9019;48.132;-1.210;2022-07-17T09:29:58;2.45;;;1.90;;
17790;SDS011;9019;48.132;-1.210;2022-07-17T09:32:26;1.85;;;1.65;;
17790;SDS011;9019;48.132;-1.210;2022-07-17T09:34:57;3.17;;;1.52;;
17790;SDS011;9019;48.132;-1.210;2022-07-17T09:37:26;3.67;;;1.80;;
17790;SDS011;9019;48.132;-1.210;2022-07-17T09:39:54;2.25;;;1.52;;
17790;SDS011;9019;48.132;-1.210;2022-07-17T09:42:22;2.33;;;1.88;;
17790;SDS011;9019;48.132;-1.210;2022-07-17T09:44:54;2.00;;;1.70;;
17790;SDS011;9019;48.132;-1.210;2022-07-17T09:47:23;1.98;;;1.70;;
17790;SDS011;9019;48.132;-1.210;2022-07-17T09:49:51;2.13;;;1.67;;
17790;SDS011;9019;48.132;-1.210;2022-07-17T09:52:21;4.43;;;1.80;;
17790;SDS011;9019;48.132;-1.210;2022-07-17T09:54:49;2.05;;;1.75;;
17790;SDS011;9019;48.132;-1.210;2022-07-17T09:57:19;3.20;;;1.70;;
17790;SDS011;9019;48.132;-1.210;2022-07-17T09:59:48;1.80;;;1.67;;
17790;SDS011;9019;48.132;-1.210;2022-07-17T10:02:15;2.75;;;1.75;;
17790;SDS011;9019;48.132;-1.210;2022-07-17T10:04:43;1.90;;;1.73;;
17790;SDS011;9019;48.132;-1.210;2022-07-17T10:07:11;2.45;;;1.67;;
17790;SDS011;9019;48.132;-1.210;2022-07-17T10:09:39;2.03;;;1.60;;
17790;SDS011;9019;48.132;-1.210;2022-07-17T10:12:06;2.75;;;1.52;;
17790;SDS011;9019;48.132;-1.210;2022-07-17T10:14:34;2.00;;;1.80;;
17790;SDS011;9019;48.132;-1.210;2022-07-17T10:17:07;2.70;;;1.80;;
17790;SDS011;9019;48.132;-1.210;2022-07-17T10:19:43;3.42;;;1.67;;
17790;SDS011;9019;48.132;-1.210;2022-07-17T10:22:13;3.72;;;1.90;;
17790;SDS011;9019;48.132;-1.210;2022-07-17T10:24:48;2.95;;;1.98;;
17790;SDS011;9019;48.132;-1.210;2022-07-17T10:27:18;1.52;;;1.42;;
17790;SDS011;9019;48.132;-1.210;2022-07-17T10:29:46;3.28;;;1.70;;
17790;SDS011;9019;48.132;-1.210;2022-07-17T10:32:14;1.77;;;1.40;;
17790;SDS011;9019;48.132;-1.210;2022-07-17T10:34:43;2.38;;;1.48;;
17790;SDS011;9019;48.132;-1.210;2022-07-17T10:37:21;5.40;;;1.60;;
17790;SDS011;9019;48.132;-1.210;2022-07-17T10:39:58;2.90;;;1.60;;
17790;SDS011;9019;48.132;-1.210;2022-07-17T10:42:37;3.45;;;1.50;;
17790;SDS011;9019;48.132;-1.210;2022-07-17T10:45:10;6.90;;;1.63;;
17790;SDS011;9019;48.132;-1.210;2022-07-17T10:47:43;2.55;;;1.40;;
17790;SDS011;9019;48.132;-1.210;2022-07-17T10:50:16;3.00;;;1.73;;
17790;SDS011;9019;48.132;-1.210;2022-07-17T10:52:55;1.95;;;1.40;;
17790;SDS011;9019;48.132;-1.210;2022-07-17T10:55:33;3.40;;;1.80;;
17790;SDS011;9019;48.132;-1.210;2022-07-17T10:58:01;1.95;;;1.67;;
17790;SDS011;9019;48.132;-1.210;2022-07-17T11:00:28;3.10;;;1.70;;
17790;SDS011;9019;48.132;-1.210;2022-07-17T11:02:56;1.95;;;1.67;;
17790;SDS011;9019;48.132;-1.210;2022-07-17T11:05:23;1.92;;;1.60;;
17790;SDS011;9019;48.132;-1.210;2022-07-17T11:07:54;3.33;;;1.40;;
17790;SDS011;9019;48.132;-1.210;2022-07-17T11:10:23;2.75;;;1.48;;
17790;SDS011;9019;48.132;-1.210;2022-07-17T11:12:53;1.67;;;1.40;;
17790;SDS011;9019;48.132;-1.210;2022-07-17T11:15:20;3.38;;;1.60;;
17790;SDS011;9019;48.132;-1.210;2022-07-17T11:17:48;4.38;;;1.40;;
17790;SDS011;9019;48.132;-1.210;2022-07-17T11:20:15;3.55;;;1.33;;
17790;SDS011;9019;48.132;-1.210;2022-07-17T11:22:44;2.05;;;1.30;;
17790;SDS011;9019;48.132;-1.210;2022-07-17T11:25:11;2.10;;;1.33;;
17790;SDS011;9019;48.132;-1.210;2022-07-17T11:27:38;1.95;;;1.20;;
17790;SDS011;9019;48.132;-1.210;2022-07-17T11:30:10;1.88;;;1.30;;
17790;SDS011;9019;48.132;-1.210;2022-07-17T11:32:41;2.30;;;1.33;;
17790;SDS011;9019;48.132;-1.210;2022-07-17T11:35:14;2.50;;;1.50;;
17790;SDS011;9019;48.132;-1.210;2022-07-17T11:37:42;2.33;;;1.67;;
17790;SDS011;9019;48.132;-1.210;2022-07-17T11:40:10;3.72;;;1.75;;
17790;SDS011;9019;48.132;-1.210;2022-07-17T11:42:37;2.08;;;1.50;;
17790;SDS011;9019;48.132;-1.210;2022-07-17T11:45:05;1.63;;;1.10;;
17790;SDS011;9019;48.132;-1.210;2022-07-17T11:47:35;2.50;;;1.55;;
17790;SDS011;9019;48.132;-1.210;2022-07-17T11:50:06;1.80;;;1.33;;
17790;SDS011;9019;48.132;-1.210;2022-07-17T11:52:39;2.10;;;1.13;;
17790;SDS011;9019;48.132;-1.210;2022-07-17T11:55:08;1.50;;;1.20;;
17790;SDS011;9019;48.132;-1.210;2022-07-17T11:57:41;4.97;;;1.63;;
17790;SDS011;9019;48.132;-1.210;2022-07-17T12:00:12;1.52;;;1.05;;
17790;SDS011;9019;48.132;-1.210;2022-07-17T12:02:41;2.28;;;1.23;;
17790;SDS011;9019;48.132;-1.210;2022-07-17T12:05:08;4.22;;;1.10;;
17790;SDS011;9019;48.132;-1.210;2022-07-17T12:07:39;2.80;;;1.25;;
17790;SDS011;9019;48.132;-1.210;2022-07-17T12:10:11;2.72;;;1.20;;
17790;SDS011;9019;48.132;-1.210;2022-07-17T12:12:50;1.10;;;1.00;;
17790;SDS011;9019;48.132;-1.210;2022-07-17T12:15:20;4.05;;;1.30;;
17790;SDS011;9019;48.132;-1.210;2022-07-17T12:17:48;2.63;;;1.30;;
17790;SDS011;9019;48.132;-1.210;2022-07-17T12:20:15;1.90;;;1.20;;
17790;SDS011;9019;48.132;-1.210;2022-07-17T12:22:42;1.50;;;1.40;;
17790;SDS011;9019;48.132;-1.210;2022-07-17T12:25:20;2.03;;;1.10;;
17790;SDS011;9019;48.132;-1.210;2022-07-17T12:27:48;1.50;;;1.40;;
17790;SDS011;9019;48.132;-1.210;2022-07-17T12:30:15;2.20;;;1.38;;
17790;SDS011;9019;48.132;-1.210;2022-07-17T12:32:44;1.67;;;1.30;;
17790;SDS011;9019;48.132;-1.210;2022-07-17T12:35:12;2.38;;;1.20;;
17790;SDS011;9019;48.132;-1.210;2022-07-17T12:37:39;1.20;;;1.10;;
17790;SDS011;9019;48.132;-1.210;2022-07-17T12:40:07;2.40;;;1.50;;
17790;SDS011;9019;48.132;-1.210;2022-07-17T12:42:34;2.45;;;1.23;;
17790;SDS011;9019;48.132;-1.210;2022-07-17T12:45:02;1.50;;;1.38;;
17790;SDS011;9019;48.132;-1.210;2022-07-17T12:47:29;1.65;;;1.40;;
17790;SDS011;9019;48.132;-1.210;2022-07-17T12:49:57;2.38;;;1.40;;
17790;SDS011;9019;48.132;-1.210;2022-07-17T12:52:24;2.25;;;1.35;;
17790;SDS011;9019;48.132;-1.210;2022-07-17T12:54:51;1.67;;;1.30;;
17790;SDS011;9019;48.132;-1.210;2022-07-17T12:57:18;2.85;;;1.50;;
17790;SDS011;9019;48.132;-1.210;2022-07-17T12:59:45;1.60;;;1.50;;
17790;SDS011;9019;48.132;-1.210;2022-07-17T13:02:12;2.10;;;1.52;;
17790;SDS011;9019;48.132;-1.210;2022-07-17T13:04:39;2.17;;;1.25;;
17790;SDS011;9019;48.132;-1.210;2022-07-17T13:07:07;3.20;;;1.38;;
17790;SDS011;9019;48.132;-1.210;2022-07-17T13:09:34;2.08;;;1.50;;
17790;SDS011;9019;48.132;-1.210;2022-07-17T13:12:01;1.70;;;1.30;;
17790;SDS011;9019;48.132;-1.210;2022-07-17T13:14:29;2.03;;;1.50;;
17790;SDS011;9019;48.132;-1.210;2022-07-17T13:16:56;6.57;;;1.58;;
17790;SDS011;9019;48.132;-1.210;2022-07-17T13:19:23;1.30;;;1.15;;
17790;SDS011;9019;48.132;-1.210;2022-07-17T13:21:50;2.00;;;1.30;;
17790;SDS011;9019;48.132;-1.210;2022-07-17T13:24:19;2.78;;;1.50;;
17790;SDS011;9019;48.132;-1.210;2022-07-17T13:26:46;1.63;;;1.33;;
17790;SDS011;9019;48.132;-1.210;2022-07-17T13:29:13;3.05;;;1.25;;
17790;SDS011;9019;48.132;-1.210;2022-07-17T13:31:39;2.10;;;1.45;;
17790;SDS011;9019;48.132;-1.210;2022-07-17T13:34:06;1.30;;;1.20;;
17790;SDS011;9019;48.132;-1.210;2022-07-17T13:36:33;1.50;;;1.20;;
17790;SDS011;9019;48.132;-1.210;2022-07-17T13:39:00;2.05;;;1.30;;
17790;SDS011;9019;48.132;-1.210;2022-07-17T13:41:29;1.30;;;1.13;;
17790;SDS011;9019;48.132;-1.210;2022-07-17T13:43:56;4.20;;;1.50;;
17790;SDS011;9019;48.132;-1.210;2022-07-17T13:46:25;3.50;;;1.73;;
17790;SDS011;9019;48.132;-1.210;2022-07-17T13:48:52;6.20;;;1.45;;
17790;SDS011;9019;48.132;-1.210;2022-07-17T13:51:19;1.42;;;1.30;;
17790;SDS011;9019;48.132;-1.210;2022-07-17T13:53:47;1.67;;;1.40;;
17790;SDS011;9019;48.132;-1.210;2022-07-17T13:56:14;2.97;;;1.20;;
17790;SDS011;9019;48.132;-1.210;2022-07-17T13:58:42;1.33;;;1.23;;
17790;SDS011;9019;48.132;-1.210;2022-07-17T14:01:10;1.45;;;1.35;;
17790;SDS011;9019;48.132;-1.210;2022-07-17T14:03:37;1.60;;;1.20;;
17790;SDS011;9019;48.132;-1.210;2022-07-17T14:06:04;3.90;;;1.40;;
17790;SDS011;9019;48.132;-1.210;2022-07-17T14:08:31;1.50;;;1.15;;
17790;SDS011;9019;48.132;-1.210;2022-07-17T14:10:58;1.40;;;1.30;;
17790;SDS011;9019;48.132;-1.210;2022-07-17T14:13:26;2.72;;;1.52;;
17790;SDS011;9019;48.132;-1.210;2022-07-17T14:15:55;2.33;;;1.30;;
17790;SDS011;9019;48.132;-1.210;2022-07-17T14:18:23;1.50;;;1.38;;
17790;SDS011;9019;48.132;-1.210;2022-07-17T14:20:50;1.65;;;1.30;;
17790;SDS011;9019;48.132;-1.210;2022-07-17T14:23:17;1.27;;;1.17;;
17790;SDS011;9019;48.132;-1.210;2022-07-17T14:25:44;2.03;;;1.58;;
17790;SDS011;9019;48.132;-1.210;2022-07-17T14:28:11;2.10;;;1.40;;
17790;SDS011;9019;48.132;-1.210;2022-07-17T14:30:38;3.00;;;1.25;;
17790;SDS011;9019;48.132;-1.210;2022-07-17T14:33:06;2.08;;;1.40;;
17790;SDS011;9019;48.132;-1.210;2022-07-17T14:35:33;1.73;;;1.40;;
17790;SDS011;9019;48.132;-1.210;2022-07-17T14:38:02;5.00;;;1.42;;
17790;SDS011;9019;48.132;-1.210;2022-07-17T14:40:31;1.40;;;1.30;;
17790;SDS011;9019;48.132;-1.210;2022-07-17T14:42:58;1.45;;;1.35;;
17790;SDS011;9019;48.132;-1.210;2022-07-17T14:45:25;1.55;;;1.23;;
17790;SDS011;9019;48.132;-1.210;2022-07-17T14:47:52;2.47;;;1.50;;
17790;SDS011;9019;48.132;-1.210;2022-07-17T14:50:20;2.92;;;1.40;;
17790;SDS011;9019;48.132;-1.210;2022-07-17T14:52:47;1.92;;;1.60;;